createdAt,value
2018-11-25T00:00:27.466Z,39.83
2018-11-25T00:02:56.702Z,39.10
2018-11-25T00:05:26.132Z,38.80
2018-11-25T00:07:55.520Z,40.27
2018-11-25T00:10:24.851Z,39.53
2018-11-25T00:12:54.213Z,38.90
2018-11-25T00:15:24.065Z,40.90
2018-11-25T00:17:53.344Z,41.47
2018-11-25T00:20:22.594Z,40.50
2018-11-25T00:22:58.495Z,41.00
2018-11-25T00:25:27.778Z,41.80
2018-11-25T00:27:57.084Z,41.63
2018-11-25T00:30:26.305Z,42.70
2018-11-25T00:32:55.602Z,40.47
2018-11-25T00:35:24.873Z,38.23
2018-11-25T00:37:54.115Z,39.10
2018-11-25T00:40:24.189Z,40.17
2018-11-25T00:42:53.424Z,40.90
2018-11-25T00:45:22.722Z,43.33
2018-11-25T00:47:52.800Z,41.70
2018-11-25T00:50:22.076Z,42.80
2018-11-25T00:52:51.432Z,41.20
2018-11-25T00:55:20.649Z,38.77
2018-11-25T00:57:50.074Z,40.33
2018-11-25T01:00:20.034Z,39.90
2018-11-25T01:02:50.464Z,37.67
2018-11-25T01:05:19.856Z,37.97
2018-11-25T01:07:49.092Z,35.07
2018-11-25T01:10:19.032Z,36.83
2018-11-25T01:12:48.504Z,35.13
2018-11-25T01:15:18.359Z,36.30
2018-11-25T01:17:47.653Z,37.43
2018-11-25T01:20:19.967Z,36.43
2018-11-25T01:22:49.233Z,34.70
2018-11-25T01:25:18.467Z,36.10
2018-11-25T01:27:47.809Z,35.17
2018-11-25T01:30:17.953Z,33.70
2018-11-25T01:32:47.930Z,33.27
2018-11-25T01:35:17.410Z,32.73
2018-11-25T01:37:46.613Z,33.73
2018-11-25T01:40:19.685Z,30.63
2018-11-25T01:42:48.901Z,32.80
2018-11-25T01:45:18.658Z,33.17
2018-11-25T01:47:48.134Z,31.63
2018-11-25T01:50:18.389Z,33.93
2018-11-25T01:52:48.216Z,32.17
2018-11-25T01:55:18.567Z,32.53
2018-11-25T01:57:48.569Z,31.60
2018-11-25T02:00:19.261Z,32.47
2018-11-25T02:02:48.933Z,34.10
2018-11-25T02:05:18.309Z,34.20
2018-11-25T02:07:48.304Z,33.93
2018-11-25T02:10:18.529Z,30.67
2018-11-25T02:12:48.344Z,35.13
2018-11-25T02:15:17.971Z,34.00
2018-11-25T02:17:47.192Z,34.20
2018-11-25T02:20:20.786Z,34.70
2018-11-25T02:22:50.723Z,34.60
2018-11-25T02:25:20.236Z,35.00
2018-11-25T02:27:50.083Z,33.70
2018-11-25T02:30:19.433Z,35.20
2018-11-25T02:32:49.352Z,35.93
2018-11-25T02:35:18.963Z,35.53
2018-11-25T02:37:48.224Z,35.57
2018-11-25T02:40:18.024Z,35.40
2018-11-25T02:42:47.319Z,37.20
2018-11-25T02:45:17.650Z,36.43
2018-11-25T02:47:47.040Z,34.43
2018-11-25T02:50:33.349Z,36.83
2018-11-25T02:53:04.832Z,34.53
2018-11-25T02:55:34.065Z,36.07
2018-11-25T02:58:03.351Z,37.50
2018-11-25T03:00:32.767Z,35.97
2018-11-25T03:03:02.209Z,34.77
2018-11-25T03:05:31.572Z,34.27
2018-11-25T03:08:00.951Z,35.77
2018-11-25T03:10:30.199Z,33.27
2018-11-25T03:12:59.456Z,34.80
2018-11-25T03:15:28.703Z,35.83
2018-11-25T03:17:57.959Z,35.80
2018-11-25T03:20:27.260Z,35.30
2018-11-25T03:22:56.667Z,37.07
2018-11-25T03:25:26.080Z,34.77
2018-11-25T03:27:55.315Z,36.90
2018-11-25T03:30:24.742Z,36.33
2018-11-25T03:32:54.692Z,36.50
2018-11-25T03:35:23.976Z,37.30
2018-11-25T03:37:53.539Z,37.33
2018-11-25T03:40:22.788Z,34.93
2018-11-25T03:42:52.109Z,35.27
2018-11-25T03:45:22.126Z,35.67
2018-11-25T03:47:51.396Z,36.97
2018-11-25T03:50:20.625Z,35.30
2018-11-25T03:52:49.857Z,36.23
2018-11-25T03:55:19.215Z,36.13
2018-11-25T03:57:48.523Z,34.93
2018-11-25T04:00:21.834Z,35.83
2018-11-25T04:02:52.452Z,34.77
2018-11-25T04:05:21.730Z,34.80
2018-11-25T04:07:50.989Z,37.10
2018-11-25T04:10:20.366Z,35.87
2018-11-25T04:12:50.359Z,36.23
2018-11-25T04:15:20.148Z,34.67
2018-11-25T04:17:49.468Z,37.07
2018-11-25T04:20:19.957Z,35.87
2018-11-25T04:22:49.892Z,36.30
2018-11-25T04:25:19.313Z,34.40
2018-11-25T04:27:48.631Z,35.47
2018-11-25T04:30:19.524Z,35.87
2018-11-25T04:32:49.771Z,34.63
2018-11-25T04:35:19.183Z,36.87
2018-11-25T04:37:48.413Z,36.07
2018-11-25T04:40:18.459Z,36.20
2018-11-25T04:42:48.508Z,36.77
2018-11-25T04:45:18.330Z,35.17
2018-11-25T04:47:47.849Z,36.37
2018-11-25T04:50:19.016Z,35.40
2018-11-25T04:52:48.716Z,37.10
2018-11-25T04:55:17.975Z,36.40
2018-11-25T04:57:53.101Z,35.37
2018-11-25T05:00:22.328Z,35.20
2018-11-25T05:02:52.340Z,34.50
2018-11-25T05:05:21.570Z,34.13
2018-11-25T05:07:51.116Z,35.63
2018-11-25T05:10:20.280Z,34.60
2018-11-25T05:12:49.768Z,35.57
2018-11-25T05:15:20.469Z,35.53
2018-11-25T05:17:50.073Z,35.00
2018-11-25T05:20:20.328Z,35.60
2018-11-25T05:22:49.647Z,35.83
2018-11-25T05:25:19.880Z,36.03
2018-11-25T05:27:49.234Z,36.17
2018-11-25T05:30:20.859Z,36.53
2018-11-25T05:32:50.218Z,35.40
2018-11-25T05:35:21.427Z,37.93
2018-11-25T05:37:50.680Z,36.07
2018-11-25T05:40:20.682Z,36.13
2018-11-25T05:42:50.667Z,36.20
2018-11-25T05:45:21.306Z,34.83
2018-11-25T05:47:50.627Z,35.40
2018-11-25T05:50:20.511Z,34.53
2018-11-25T05:52:49.880Z,36.43
2018-11-25T05:55:19.105Z,36.00
2018-11-25T05:57:48.330Z,34.80
2018-11-25T06:00:21.434Z,33.17
2018-11-25T06:02:50.670Z,34.30
2018-11-25T06:05:20.610Z,35.37
2018-11-25T06:07:49.867Z,34.33
2018-11-25T06:10:19.116Z,35.73
2018-11-25T06:12:48.467Z,33.83
2018-11-25T06:15:17.837Z,32.73
2018-11-25T06:17:47.695Z,34.57
2018-11-25T06:20:18.013Z,32.37
2018-11-25T06:22:47.624Z,33.73
2018-11-25T06:25:20.170Z,33.60
2018-11-25T06:27:49.428Z,32.93
2018-11-25T06:30:21.245Z,34.33
2018-11-25T06:32:50.674Z,33.57
2018-11-25T06:35:20.443Z,35.80
2018-11-25T06:37:50.258Z,34.67
2018-11-25T06:40:20.465Z,34.13
2018-11-25T06:42:49.859Z,34.93
2018-11-25T06:45:21.629Z,33.73
2018-11-25T06:47:50.981Z,34.13
2018-11-25T06:50:21.587Z,34.70
2018-11-25T06:52:50.989Z,33.73
2018-11-25T06:55:20.229Z,34.67
2018-11-25T06:57:50.065Z,33.07
2018-11-25T07:00:22.385Z,32.13
2018-11-25T07:02:51.729Z,34.83
2018-11-25T07:05:21.667Z,33.10
2018-11-25T07:07:50.939Z,33.20
2018-11-25T07:10:21.276Z,31.87
2018-11-25T07:12:51.960Z,32.17
2018-11-25T07:15:21.238Z,33.50
2018-11-25T07:17:50.465Z,33.13
2018-11-25T07:20:19.976Z,32.57
2018-11-25T07:22:49.231Z,33.10
2018-11-25T07:25:20.611Z,33.20
2018-11-25T07:27:51.241Z,33.50
2018-11-25T07:30:26.111Z,32.60
2018-11-25T07:32:55.546Z,32.67
2018-11-25T07:35:26.040Z,31.47
2018-11-25T07:37:55.851Z,32.60
2018-11-25T07:40:25.895Z,34.63
2018-11-25T07:42:55.224Z,35.00
2018-11-25T07:45:30.576Z,33.70
2018-11-25T07:47:54.966Z,32.60
2018-11-25T07:50:24.293Z,31.53
2018-11-25T07:52:54.206Z,33.97
2018-11-25T07:55:25.714Z,33.93
2018-11-25T07:57:58.782Z,34.77
2018-11-25T08:00:28.172Z,34.13
2018-11-25T08:02:57.660Z,32.77
2018-11-25T08:05:27.835Z,34.30
2018-11-25T08:07:57.154Z,32.47
2018-11-25T08:10:26.434Z,33.53
2018-11-25T08:12:56.501Z,32.60
2018-11-25T08:16:34.557Z,33.93
2018-11-25T08:19:04.106Z,34.27
2018-11-25T08:21:33.475Z,31.90
2018-11-25T08:24:03.610Z,32.97
2018-11-25T08:26:33.048Z,31.50
2018-11-25T08:29:02.350Z,33.40
2018-11-25T08:31:31.571Z,33.23
2018-11-25T08:34:01.652Z,31.70
2018-11-25T08:36:30.882Z,33.07
2018-11-25T08:39:00.198Z,32.83
2018-11-25T08:41:29.405Z,34.83
2018-11-25T08:43:59.373Z,32.93
2018-11-25T08:46:28.723Z,30.93
2018-11-25T08:48:58.051Z,31.70
2018-11-25T08:51:27.299Z,32.37
2018-11-25T08:53:56.507Z,31.30
2018-11-25T08:56:25.837Z,31.03
2018-11-25T08:58:55.233Z,30.43
2018-11-25T09:01:25.180Z,31.23
2018-11-25T09:03:56.321Z,30.00
2018-11-25T09:06:25.594Z,32.03
2018-11-25T09:08:54.809Z,31.47
2018-11-25T09:11:27.803Z,30.00
2018-11-25T09:13:57.684Z,32.07
2018-11-25T09:16:27.289Z,30.90
2018-11-25T09:18:56.593Z,31.70
2018-11-25T09:21:26.665Z,31.87
2018-11-25T09:23:55.894Z,31.77
2018-11-25T09:26:25.229Z,30.37
2018-11-25T09:28:54.432Z,33.13
2018-11-25T09:31:23.654Z,31.70
2018-11-25T09:33:52.891Z,32.53
2018-11-25T09:36:22.358Z,31.20
2018-11-25T09:38:51.594Z,33.37
2018-11-25T09:41:20.791Z,31.17
2018-11-25T09:43:50.007Z,32.13
2018-11-25T09:46:19.892Z,31.60
2018-11-25T09:48:49.241Z,30.03
2018-11-25T09:51:18.629Z,32.17
2018-11-25T09:53:48.565Z,29.80
2018-11-25T09:56:17.765Z,31.73
2018-11-25T09:58:47.005Z,34.13
2018-11-25T10:01:16.338Z,31.60
2018-11-25T10:03:45.563Z,32.83
2018-11-25T10:06:14.890Z,31.73
2018-11-25T10:08:44.598Z,31.57
2018-11-25T10:11:13.905Z,32.63
2018-11-25T10:13:43.255Z,31.23
2018-11-25T10:16:12.523Z,31.33
2018-11-25T10:18:41.793Z,30.63
2018-11-25T10:21:11.033Z,30.70
2018-11-25T10:23:41.095Z,30.10
2018-11-25T10:26:10.320Z,31.33
2018-11-25T10:28:39.574Z,31.97
2018-11-25T10:31:08.819Z,31.83
2018-11-25T10:33:38.040Z,30.97
2018-11-25T10:36:07.990Z,29.13
2018-11-25T10:38:37.907Z,30.10
2018-11-25T10:41:07.869Z,31.13
2018-11-25T10:43:37.690Z,28.87
2018-11-25T10:46:07.679Z,28.57
2018-11-25T10:48:36.973Z,28.57
2018-11-25T10:51:06.482Z,30.10
2018-11-25T10:53:35.722Z,27.37
2018-11-25T10:56:05.482Z,29.80
2018-11-25T10:58:34.739Z,30.57
2018-11-25T11:01:09.381Z,30.93
2018-11-25T11:03:43.953Z,32.43
2018-11-25T11:06:18.644Z,33.10
2018-11-25T11:08:48.056Z,32.80
2018-11-25T11:11:17.494Z,30.07
2018-11-25T11:13:47.490Z,31.40
2018-11-25T11:16:16.875Z,31.83
2018-11-25T11:18:46.122Z,31.33
2018-11-25T11:21:15.418Z,29.63
2018-11-25T11:23:44.760Z,29.87
2018-11-25T11:26:24.436Z,30.10
2018-11-25T11:28:53.735Z,31.07
2018-11-25T11:31:23.025Z,30.07
2018-11-25T11:33:52.382Z,27.80
2018-11-25T11:36:22.893Z,28.07
2018-11-25T11:38:53.525Z,30.13
2018-11-25T11:41:22.765Z,28.20
2018-11-25T11:43:52.570Z,28.93
2018-11-25T11:46:22.667Z,28.43
2018-11-25T11:48:51.073Z,27.47
2018-11-25T11:51:25.541Z,28.90
2018-11-25T11:53:49.723Z,29.10
2018-11-25T11:56:19.113Z,27.67
2018-11-25T11:58:48.559Z,27.17
2018-11-25T12:01:18.409Z,26.67
2018-11-25T12:03:47.784Z,26.70
2018-11-25T12:06:17.149Z,26.27
2018-11-25T12:08:46.434Z,27.63
2018-11-25T12:11:15.877Z,27.30
2018-11-25T12:13:45.177Z,26.83
2018-11-25T12:16:14.565Z,27.93
2018-11-25T12:18:44.053Z,27.33
2018-11-25T12:21:13.341Z,28.43
2018-11-25T12:23:42.743Z,27.43
2018-11-25T12:26:12.052Z,27.53
2018-11-25T12:28:42.259Z,27.83
2018-11-25T12:31:11.541Z,30.00
2018-11-25T12:33:41.785Z,27.63
2018-11-25T12:36:11.181Z,28.23
2018-11-25T12:38:40.482Z,27.30
2018-11-25T12:41:10.394Z,27.83
2018-11-25T12:43:40.237Z,28.53
2018-11-25T12:46:09.521Z,27.60
2018-11-25T12:48:38.963Z,29.27
2018-11-25T12:51:08.213Z,27.87
2018-11-25T12:53:37.474Z,26.97
2018-11-25T12:56:06.754Z,26.90
2018-11-25T12:58:36.018Z,27.73
2018-11-25T13:01:05.507Z,27.07
2018-11-25T13:03:35.410Z,25.83
2018-11-25T13:06:04.707Z,26.50
2018-11-25T13:08:34.123Z,28.70
2018-11-25T13:11:04.225Z,28.37
2018-11-25T13:13:33.457Z,26.27
2018-11-25T13:16:03.466Z,26.43
2018-11-25T13:18:32.993Z,26.63
2018-11-25T13:21:02.815Z,27.30
2018-11-25T13:23:32.089Z,25.73
2018-11-25T13:26:01.384Z,26.50
2018-11-25T13:28:31.588Z,26.50
2018-11-25T13:31:01.574Z,26.73
2018-11-25T13:33:31.462Z,27.87
2018-11-25T13:36:00.862Z,28.03
2018-11-25T13:38:30.852Z,27.97
2018-11-25T13:41:00.362Z,27.33
2018-11-25T13:43:30.418Z,27.70
2018-11-25T13:45:59.816Z,28.80
2018-11-25T13:48:29.333Z,27.10
2018-11-25T13:51:06.745Z,27.00
2018-11-25T13:53:37.136Z,29.07
2018-11-25T13:56:07.128Z,28.30
2018-11-25T13:58:36.465Z,27.27
2018-11-25T14:01:06.676Z,29.07
2018-11-25T14:03:37.985Z,27.63
2018-11-25T14:06:10.358Z,26.83
2018-11-25T14:08:39.640Z,26.80
2018-11-25T14:11:11.608Z,26.63
2018-11-25T14:13:40.875Z,25.97
2018-11-25T14:16:12.884Z,24.80
2018-11-25T14:18:43.168Z,25.80
2018-11-25T14:21:12.549Z,25.73
2018-11-25T14:23:42.958Z,24.30
2018-11-25T14:26:17.733Z,23.73
2018-11-25T14:28:47.942Z,22.60
2018-11-25T14:31:17.276Z,21.07
2018-11-25T14:33:47.367Z,22.07
2018-11-25T14:36:16.817Z,21.23
2018-11-25T14:38:46.060Z,25.00
2018-11-25T14:41:15.458Z,21.03
2018-11-25T14:43:45.378Z,21.90
2018-11-25T14:46:14.646Z,20.37
2018-11-25T14:48:44.756Z,21.37
2018-11-25T14:51:14.087Z,21.13
2018-11-25T14:53:44.039Z,21.93
2018-11-25T14:56:13.308Z,21.27
2018-11-25T14:58:44.199Z,20.60
2018-11-25T15:01:14.238Z,21.97
2018-11-25T15:03:43.491Z,21.80
2018-11-25T15:06:12.790Z,23.20
2018-11-25T15:08:42.167Z,22.37
2018-11-25T15:11:11.444Z,19.67
2018-11-25T15:13:40.698Z,20.70
2018-11-25T15:16:13.792Z,20.77
2018-11-25T15:18:43.613Z,20.07
2018-11-25T15:21:14.166Z,21.00
2018-11-25T15:23:43.561Z,20.63
2018-11-25T15:26:15.134Z,18.13
2018-11-25T15:28:45.196Z,18.67
2018-11-25T15:31:15.078Z,20.20
2018-11-25T15:33:44.465Z,18.90
2018-11-25T15:36:13.760Z,19.23
2018-11-25T15:38:43.278Z,19.77
2018-11-25T15:41:12.535Z,20.13
2018-11-25T15:43:43.217Z,18.87
2018-11-25T15:46:12.442Z,19.47
2018-11-25T15:48:41.693Z,19.00
2018-11-25T15:51:11.746Z,19.70
2018-11-25T15:53:40.965Z,19.27
2018-11-25T15:56:10.717Z,19.20
2018-11-25T15:58:40.047Z,18.80
2018-11-25T16:01:09.297Z,17.63
2018-11-25T16:03:38.610Z,18.60
2018-11-25T16:06:13.957Z,19.37
2018-11-25T16:08:43.292Z,18.37
2018-11-25T16:11:12.537Z,16.87
2018-11-25T16:13:41.904Z,17.83
2018-11-25T16:16:11.387Z,17.23
2018-11-25T16:18:40.657Z,17.97
2018-11-25T16:21:09.904Z,18.13
2018-11-25T16:23:39.165Z,18.20
2018-11-25T16:26:12.540Z,19.07
2018-11-25T16:28:43.705Z,17.70
2018-11-25T16:31:12.944Z,18.50
2018-11-25T16:33:42.260Z,18.47
2018-11-25T16:36:11.602Z,17.63
2018-11-25T16:38:41.026Z,17.53
2018-11-25T16:41:10.309Z,17.60
2018-11-25T16:43:39.839Z,17.70
2018-11-25T16:46:09.269Z,16.47
2018-11-25T16:48:38.547Z,16.77
2018-11-25T16:51:07.801Z,16.93
2018-11-25T16:53:37.797Z,17.07
2018-11-25T16:56:07.086Z,16.10
2018-11-25T16:58:36.774Z,16.60
2018-11-25T17:01:10.192Z,16.30
2018-11-25T17:03:36.312Z,17.37
2018-11-25T17:06:06.958Z,15.67
2018-11-25T17:08:38.081Z,15.33
2018-11-25T17:11:08.000Z,15.50
2018-11-25T17:13:37.467Z,16.07
2018-11-25T17:16:07.720Z,15.47
2018-11-25T17:18:38.140Z,15.57
2018-11-25T17:21:07.422Z,16.80
2018-11-25T17:23:36.860Z,15.80
2018-11-25T17:26:06.396Z,15.63
2018-11-25T17:28:35.613Z,15.87
2018-11-25T17:31:04.873Z,16.23
2018-11-25T17:33:34.220Z,15.50
2018-11-25T17:36:03.537Z,15.33
2018-11-25T17:38:32.856Z,16.53
2018-11-25T17:41:02.233Z,15.20
2018-11-25T17:43:31.473Z,15.67
2018-11-25T17:46:00.854Z,16.03
2018-11-25T17:48:30.148Z,15.47
2018-11-25T17:50:59.390Z,15.67
2018-11-25T17:53:28.737Z,14.87
2018-11-25T17:55:58.193Z,15.03
2018-11-25T17:58:27.432Z,15.00
2018-11-25T18:01:02.639Z,15.70
2018-11-25T18:03:33.065Z,15.87
2018-11-25T18:06:02.390Z,16.53
2018-11-25T18:08:33.230Z,15.43
2018-11-25T18:11:02.589Z,16.37
2018-11-25T18:13:34.606Z,16.17
2018-11-25T18:16:05.295Z,15.77
2018-11-25T18:18:42.306Z,16.70
2018-11-25T18:21:14.492Z,15.80
2018-11-25T18:23:43.767Z,16.17
2018-11-25T18:26:13.135Z,16.10
2018-11-25T18:28:42.473Z,16.03
2018-11-25T18:31:12.844Z,15.50
2018-11-25T18:33:42.136Z,15.83
2018-11-25T18:36:13.673Z,16.10
2018-11-25T18:38:43.130Z,16.17
2018-11-25T18:41:12.469Z,16.27
2018-11-25T18:43:41.759Z,17.07
2018-11-25T18:46:11.026Z,16.33
2018-11-25T18:48:43.142Z,18.20
2018-11-25T18:51:12.429Z,16.80
2018-11-25T18:53:42.434Z,16.80
2018-11-25T18:56:11.672Z,17.60
2018-11-25T18:58:41.009Z,16.90
2018-11-25T19:01:18.049Z,17.07
2018-11-25T19:03:47.322Z,17.57
2018-11-25T19:06:16.600Z,18.57
2018-11-25T19:08:46.616Z,19.43
2018-11-25T19:11:15.968Z,18.27
2018-11-25T19:13:45.217Z,17.67
2018-11-25T19:16:15.221Z,17.87
2018-11-25T19:18:44.466Z,16.37
2018-11-25T19:21:13.688Z,17.53
2018-11-25T19:23:42.943Z,16.27
2018-11-25T19:26:12.183Z,16.10
2018-11-25T19:28:41.488Z,16.93
2018-11-25T19:31:10.896Z,16.17
2018-11-25T19:33:40.133Z,18.20
2018-11-25T19:36:09.429Z,16.67
2018-11-25T19:38:39.509Z,19.23
2018-11-25T19:41:09.440Z,17.90
2018-11-25T19:43:38.678Z,18.00
2018-11-25T19:46:08.669Z,18.40
2018-11-25T19:48:37.960Z,17.57
2018-11-25T19:51:07.345Z,19.83
2018-11-25T19:53:36.575Z,20.63
2018-11-25T19:56:07.199Z,20.70
2018-11-25T19:58:38.212Z,20.73
2018-11-25T20:01:08.062Z,22.27
2018-11-25T20:03:37.319Z,22.03
2018-11-25T20:06:06.591Z,23.07
2018-11-25T20:08:35.839Z,24.20
2018-11-25T20:11:05.285Z,23.37
2018-11-25T20:13:35.259Z,24.50
2018-11-25T20:16:09.836Z,26.80
2018-11-25T20:18:39.158Z,24.57
2018-11-25T20:21:13.733Z,24.57
2018-11-25T20:23:42.998Z,25.80
2018-11-25T20:26:12.324Z,26.90
2018-11-25T20:28:41.615Z,27.10
2018-11-25T20:31:11.069Z,25.73
2018-11-25T20:33:52.339Z,27.67
2018-11-25T20:36:18.302Z,25.40
2018-11-25T20:38:52.832Z,26.67
2018-11-25T20:41:22.085Z,26.53
2018-11-25T20:43:51.304Z,26.13
2018-11-25T20:46:26.761Z,28.37
2018-11-25T20:48:56.072Z,27.10
2018-11-25T20:51:30.658Z,27.30
2018-11-25T20:54:00.590Z,27.07
2018-11-25T20:56:29.938Z,27.03
2018-11-25T20:58:59.290Z,28.37
2018-11-25T21:01:29.389Z,27.60
2018-11-25T21:03:58.757Z,25.63
2018-11-25T21:06:28.315Z,28.07
2018-11-25T21:08:58.103Z,28.97
2018-11-25T21:11:27.317Z,26.77
2018-11-25T21:13:56.542Z,26.17
2018-11-25T21:16:25.890Z,26.27
2018-11-25T21:18:55.151Z,27.70
2018-11-25T21:21:26.168Z,26.63
2018-11-25T21:23:55.425Z,27.60
2018-11-25T21:26:24.674Z,25.77
2018-11-25T21:28:54.216Z,28.33
2018-11-25T21:31:24.388Z,27.00
2018-11-25T21:33:53.624Z,28.00
2018-11-25T21:36:23.122Z,29.93
2018-11-25T21:38:52.380Z,27.73
2018-11-25T21:41:21.809Z,27.83
2018-11-25T21:43:51.053Z,26.70
2018-11-25T21:46:20.336Z,27.53
2018-11-25T21:48:49.608Z,26.93
2018-11-25T21:51:19.437Z,27.90
2018-11-25T21:53:48.660Z,29.13
2018-11-25T21:56:17.892Z,26.83
2018-11-25T21:58:47.149Z,27.60
2018-11-25T22:01:16.451Z,27.63
2018-11-25T22:03:45.853Z,27.00
2018-11-25T22:06:15.131Z,26.70
2018-11-25T22:08:44.357Z,27.57
2018-11-25T22:11:13.670Z,27.80
2018-11-25T22:13:42.937Z,26.97
2018-11-25T22:16:12.256Z,26.03
2018-11-25T22:18:41.524Z,27.00
2018-11-25T22:21:10.772Z,27.63
2018-11-25T22:23:40.260Z,25.37
2018-11-25T22:26:09.538Z,25.47
2018-11-25T22:28:38.949Z,26.20
2018-11-25T22:31:08.256Z,25.03
2018-11-25T22:33:37.624Z,25.43
2018-11-25T22:36:06.905Z,25.17
2018-11-25T22:38:36.224Z,25.87
2018-11-25T22:41:05.954Z,25.47
2018-11-25T22:43:35.333Z,24.77
2018-11-25T22:46:05.072Z,25.33
2018-11-25T22:48:34.428Z,25.70
2018-11-25T22:51:03.804Z,25.57
2018-11-25T22:53:33.181Z,25.60
2018-11-25T22:56:02.452Z,24.60
2018-11-25T22:58:31.695Z,25.23
2018-11-25T23:01:00.952Z,25.77
2018-11-25T23:03:31.020Z,25.63
2018-11-25T23:06:11.269Z,24.13
2018-11-25T23:08:40.560Z,25.23
2018-11-25T23:11:09.784Z,25.67
2018-11-25T23:13:39.013Z,23.63
2018-11-25T23:16:08.278Z,24.70
2018-11-25T23:18:38.187Z,24.97
2018-11-25T23:21:07.394Z,24.27
2018-11-25T23:23:36.716Z,24.43
2018-11-25T23:26:06.185Z,25.33
2018-11-25T23:28:36.084Z,24.30
2018-11-25T23:31:05.812Z,25.10
2018-11-25T23:33:35.123Z,23.53
2018-11-25T23:36:04.398Z,23.50
2018-11-25T23:38:33.800Z,23.80
2018-11-25T23:41:03.103Z,25.17
2018-11-25T23:43:32.322Z,23.23
2018-11-25T23:46:01.549Z,24.17
2018-11-25T23:48:30.822Z,24.00
2018-11-25T23:51:00.095Z,23.53
2018-11-25T23:53:30.169Z,22.77
2018-11-25T23:55:59.382Z,23.27
2018-11-25T23:58:28.600Z,24.40
